createdAt,value
2022-08-25T00:00:02.728Z,84.63
2022-08-25T00:01:02.739Z,84.83
2022-08-25T00:02:03.519Z,85.17
2022-08-25T00:03:02.681Z,85.48
2022-08-25T00:04:02.666Z,85.58
2022-08-25T00:05:02.687Z,85.58
2022-08-25T00:06:02.634Z,85.58
2022-08-25T00:07:03.439Z,85.68
2022-08-25T00:08:02.922Z,85.58
2022-08-25T00:09:02.609Z,85.48
2022-08-25T00:10:02.608Z,85.44
2022-08-25T00:11:03.414Z,85.14
2022-08-25T00:12:02.611Z,85.17
2022-08-25T00:13:02.571Z,85.48
2022-08-25T00:14:02.604Z,85.58
2022-08-25T00:15:02.573Z,86.02
2022-08-25T00:16:02.597Z,86.22
2022-08-25T00:17:02.557Z,86.32
2022-08-25T00:18:03.636Z,86.18
2022-08-25T00:19:02.474Z,86.08
2022-08-25T00:20:02.541Z,85.88
2022-08-25T00:21:02.478Z,85.68
2022-08-25T00:22:02.488Z,85.68
2022-08-25T00:23:02.447Z,85.58
2022-08-25T00:24:02.493Z,85.78
2022-08-25T00:25:02.416Z,85.92
2022-08-25T00:26:02.422Z,86.02
2022-08-25T00:27:02.406Z,85.92
2022-08-25T00:28:07.825Z,86.02
2022-08-25T00:29:02.368Z,86.02
2022-08-25T00:30:02.352Z,86.57
2022-08-25T00:31:02.437Z,86.87
2022-08-25T00:32:02.388Z,86.97
2022-08-25T00:33:02.366Z,86.87
2022-08-25T00:34:02.361Z,86.87
2022-08-25T00:35:02.306Z,86.87
2022-08-25T00:36:02.308Z,86.77
2022-08-25T00:37:02.262Z,86.66
2022-08-25T00:38:02.428Z,86.46
2022-08-25T00:39:02.288Z,86.32
2022-08-25T00:40:02.327Z,85.92
2022-08-25T00:41:02.219Z,85.62
2022-08-25T00:42:02.221Z,85.31
2022-08-25T00:43:02.266Z,85.22
2022-08-25T00:44:02.269Z,85.31
2022-08-25T00:45:02.382Z,85.31
2022-08-25T00:46:02.376Z,85.11
2022-08-25T00:47:02.194Z,85.02
2022-08-25T01:42:18.553Z,84.25
2022-08-25T01:43:19.304Z,84.25
2022-08-25T01:44:19.289Z,84.25
2022-08-25T01:45:19.384Z,84.15
2022-08-25T01:46:19.449Z,84.05
2022-08-25T01:47:19.333Z,83.95
2022-08-25T01:48:19.875Z,83.84
2022-08-25T01:49:19.251Z,83.75
2022-08-25T01:50:19.235Z,83.54
2022-08-25T01:51:19.194Z,83.65
2022-08-25T01:52:19.215Z,83.84
2022-08-25T01:53:19.217Z,83.65
2022-08-25T01:54:19.150Z,83.54
2022-08-25T01:55:19.177Z,83.54
2022-08-25T01:56:19.171Z,83.45
2022-08-25T01:57:19.135Z,83.51
2022-08-25T01:58:19.157Z,83.40
2022-08-25T01:59:24.333Z,83.20
2022-08-25T02:00:19.138Z,83.20
2022-08-25T02:01:19.204Z,83.20
2022-08-25T02:02:19.147Z,82.90
2022-08-25T02:03:19.263Z,82.70
2022-08-25T02:04:19.137Z,82.80
2022-08-25T02:05:22.892Z,82.90
2022-08-25T02:06:19.062Z,83.00
2022-08-25T02:07:19.050Z,83.11
2022-08-25T02:08:19.074Z,83.20
2022-08-25T02:09:18.986Z,83.20
2022-08-25T02:10:19.013Z,83.20
2022-08-25T02:11:19.008Z,83.11
2022-08-25T02:12:18.989Z,83.00
2022-08-25T02:13:18.967Z,83.20
2022-08-25T02:14:18.966Z,83.51
2022-08-25T02:15:18.965Z,83.75
2022-08-25T02:16:18.957Z,83.91
2022-08-25T02:17:18.924Z,83.84
2022-08-25T02:18:18.904Z,83.84
2022-08-25T02:19:18.932Z,83.95
2022-08-25T02:20:18.937Z,84.05
2022-08-25T02:21:18.837Z,83.95
2022-08-25T02:22:18.840Z,83.95
2022-08-25T02:23:18.874Z,84.15
2022-08-25T02:24:18.886Z,84.25
2022-08-25T02:25:18.780Z,84.35
2022-08-25T02:26:18.833Z,84.45
2022-08-25T02:27:18.798Z,84.45
2022-08-25T07:37:57.898Z,83.65
2022-08-25T07:38:58.581Z,83.25
2022-08-25T07:59:54.514Z,82.84
2022-08-25T08:00:55.475Z,82.54
2022-08-25T08:01:55.565Z,82.40
2022-08-25T08:02:55.630Z,82.20
2022-08-25T08:03:56.841Z,81.99
2022-08-25T08:04:55.485Z,81.79
2022-08-25T08:05:55.439Z,81.59
2022-08-25T08:06:55.403Z,81.79
2022-08-25T08:07:55.466Z,81.70
2022-08-25T08:08:58.941Z,81.70
2022-08-25T08:10:13.619Z,81.59
2022-08-25T08:11:10.682Z,81.59
2022-08-25T08:11:55.385Z,82.44
2022-08-25T08:12:55.434Z,82.84
2022-08-25T08:13:55.400Z,82.94
2022-08-25T08:14:56.155Z,83.08
2022-08-25T08:15:55.353Z,82.88
2022-08-25T08:16:55.299Z,83.28
2022-08-25T08:17:55.317Z,83.62
2022-08-25T08:18:55.402Z,83.93
2022-08-25T08:19:55.294Z,84.67
2022-08-25T08:20:55.578Z,84.97
2022-08-25T08:21:55.301Z,84.97
2022-08-25T08:22:55.259Z,84.88
2022-08-25T08:23:58.750Z,84.88
2022-08-25T08:24:56.388Z,84.88
2022-08-25T08:25:55.267Z,84.88
2022-08-25T08:26:58.982Z,84.88
2022-08-25T08:27:55.993Z,84.97
2022-08-25T08:28:55.203Z,84.97
2022-08-25T08:29:55.147Z,84.88
2022-08-25T08:30:55.203Z,84.88
2022-08-25T08:31:55.222Z,84.67
2022-08-25T08:33:11.878Z,84.67
2022-08-25T08:33:55.119Z,84.67
2022-08-25T08:34:55.154Z,84.77
2022-08-25T08:35:55.146Z,84.88
2022-08-25T08:36:55.106Z,84.77
2022-08-25T08:37:55.056Z,84.53
2022-08-25T08:38:55.094Z,84.43
2022-08-25T08:39:55.096Z,84.33
2022-08-25T08:40:55.074Z,84.23
2022-08-25T08:42:11.166Z,84.13
2022-08-25T08:42:55.039Z,83.89
2022-08-25T08:43:55.076Z,83.59
2022-08-25T08:44:57.017Z,83.72
2022-08-25T08:45:55.032Z,84.03
2022-08-25T08:46:56.661Z,84.23
2022-08-25T08:47:55.014Z,84.57
2022-08-25T08:48:54.970Z,84.88
2022-08-25T08:49:54.982Z,85.28
2022-08-25T08:50:54.983Z,85.48
2022-08-25T08:51:54.941Z,85.58
2022-08-25T08:52:54.946Z,85.58
2022-08-25T08:53:54.956Z,85.48
2022-08-25T08:54:54.901Z,85.48
2022-08-25T08:55:54.882Z,85.48
2022-08-25T08:56:54.851Z,85.48
2022-08-25T08:57:54.880Z,85.38
2022-08-25T08:58:54.847Z,85.38
2022-08-25T08:59:54.853Z,85.38
2022-08-25T09:00:54.829Z,85.48
2022-08-25T09:01:54.834Z,85.58
2022-08-25T09:02:54.871Z,85.78
2022-08-25T09:03:55.530Z,85.82
2022-08-25T09:04:54.810Z,85.82
2022-08-25T09:05:54.788Z,85.78
2022-08-25T09:06:54.761Z,85.68
2022-08-25T09:07:56.095Z,85.68
2022-08-25T09:08:54.779Z,85.58
2022-08-25T09:09:54.722Z,85.38
2022-08-25T09:10:54.781Z,85.28
2022-08-25T09:11:54.700Z,85.58
2022-08-25T09:13:54.658Z,86.02
2022-08-25T09:14:54.710Z,86.22
2022-08-25T09:15:54.908Z,86.43
2022-08-25T09:16:54.611Z,86.53
2022-08-25T09:17:55.077Z,86.53
2022-08-25T09:18:54.611Z,86.43
2022-08-25T09:19:54.576Z,86.33
2022-08-25T09:20:54.678Z,86.33
2022-08-25T09:21:54.613Z,86.33
2022-08-25T09:22:54.532Z,86.33
2022-08-25T09:23:54.566Z,86.18
2022-08-25T09:24:54.574Z,85.88
2022-08-25T09:25:54.594Z,85.58
2022-08-25T09:26:54.610Z,85.38
2022-08-25T09:27:54.531Z,85.48
2022-08-25T09:28:54.499Z,85.72
2022-08-25T09:29:54.486Z,85.92
2022-08-25T09:30:54.536Z,86.13
2022-08-25T09:31:54.544Z,86.22
2022-08-25T09:32:54.474Z,86.33
2022-08-25T09:33:54.422Z,86.33
2022-08-25T09:34:54.436Z,86.13
2022-08-25T09:35:54.437Z,86.13
2022-08-25T09:36:54.447Z,86.13
2022-08-25T09:37:54.429Z,86.13
2022-08-25T09:38:54.408Z,85.88
2022-08-25T09:39:54.406Z,85.78
2022-08-25T09:40:54.396Z,85.68
2022-08-25T09:41:54.383Z,85.68
2022-08-25T09:42:58.090Z,85.68
2022-08-25T09:43:54.306Z,85.68
2022-08-25T09:44:54.314Z,85.78
2022-08-25T09:45:54.373Z,85.78
2022-08-25T09:46:54.330Z,85.48
2022-08-25T09:47:54.305Z,85.28
2022-08-25T09:48:56.430Z,85.17
2022-08-25T09:49:54.285Z,85.17
2022-08-25T09:50:54.296Z,85.08
2022-08-25T09:51:54.253Z,85.28
2022-08-25T09:52:54.267Z,85.48
2022-08-25T09:53:54.196Z,85.68
2022-08-25T09:54:54.218Z,85.78
2022-08-25T09:55:57.818Z,85.98
2022-08-25T09:56:54.213Z,86.13
2022-08-25T09:57:54.181Z,86.33
2022-08-25T09:58:54.185Z,86.33
2022-08-25T09:59:57.556Z,86.18
2022-08-25T10:00:54.118Z,86.08
2022-08-25T10:01:54.183Z,85.88
2022-08-25T10:02:54.174Z,85.88
2022-08-25T10:03:54.153Z,85.88
2022-08-25T10:04:54.138Z,85.88
2022-08-25T10:05:56.149Z,85.92
2022-08-25T10:06:54.088Z,86.13
2022-08-25T10:07:54.076Z,86.22
2022-08-25T10:08:54.102Z,86.22
2022-08-25T10:09:54.096Z,86.13
2022-08-25T10:10:54.032Z,86.13
2022-08-25T10:11:57.633Z,86.13
2022-08-25T10:12:53.980Z,86.13
2022-08-25T10:13:54.018Z,86.13
2022-08-25T10:14:54.509Z,86.13
2022-08-25T10:15:54.015Z,86.22
2022-08-25T10:16:53.997Z,86.18
2022-08-25T10:17:53.951Z,86.08
2022-08-25T10:18:53.945Z,86.08
2022-08-25T10:19:53.991Z,86.08
2022-08-25T10:20:53.976Z,85.98
2022-08-25T10:21:53.931Z,86.13
2022-08-25T10:22:53.906Z,86.13
2022-08-25T10:23:53.882Z,86.33
2022-08-25T10:24:53.866Z,86.33
2022-08-25T10:25:59.228Z,86.33
2022-08-25T10:26:53.896Z,86.53
2022-08-25T10:27:53.811Z,86.63
2022-08-25T10:28:53.812Z,86.53
2022-08-25T10:29:53.840Z,86.53
2022-08-25T10:30:53.818Z,86.43
2022-08-25T10:31:53.840Z,86.29
2022-08-25T10:32:53.823Z,86.33
2022-08-25T10:33:53.773Z,86.29
2022-08-25T10:34:53.779Z,86.29
2022-08-25T10:35:53.769Z,86.38
2022-08-25T10:36:53.788Z,86.18
2022-08-25T10:37:53.737Z,86.18
2022-08-25T10:38:53.737Z,86.08
2022-08-25T10:39:55.326Z,85.98
2022-08-25T10:40:53.730Z,85.98
2022-08-25T10:41:53.695Z,86.08
2022-08-25T10:42:53.653Z,86.18
2022-08-25T10:43:53.669Z,85.98
2022-08-25T10:44:53.675Z,86.08
2022-08-25T10:45:53.697Z,85.98
2022-08-25T10:46:53.635Z,86.08
2022-08-25T10:47:53.652Z,86.08
2022-08-25T11:03:07.950Z,85.78
2022-08-25T11:03:46.749Z,85.78
2022-08-25T11:06:41.426Z,85.54
2022-08-25T11:07:31.543Z,85.54
2022-08-25T11:08:34.965Z,85.00
2022-08-25T11:09:31.489Z,84.69
2022-08-25T11:10:31.506Z,84.59
2022-08-25T11:11:31.469Z,84.19
2022-08-25T11:12:32.389Z,83.89
2022-08-25T11:41:23.222Z,84.09
2022-08-25T11:42:24.179Z,83.89
2022-08-25T11:43:24.489Z,83.79
2022-08-25T11:44:24.187Z,83.59
2022-08-25T14:15:43.511Z,69.26
2022-08-25T14:16:44.493Z,69.02
2022-08-25T14:17:44.306Z,68.73
2022-08-25T14:18:44.356Z,68.93
2022-08-25T14:19:44.304Z,69.73
2022-08-25T14:20:44.309Z,69.23
2022-08-25T14:21:44.307Z,68.73
2022-08-25T14:22:44.339Z,68.49
2022-08-25T14:23:44.305Z,68.63
2022-08-25T14:24:44.279Z,69.56
2022-08-25T14:25:44.314Z,70.09
2022-08-25T14:26:54.278Z,69.96
2022-08-25T14:28:03.528Z,69.66
2022-08-25T14:28:44.215Z,71.12
2022-08-25T14:29:44.245Z,69.53
2022-08-25T14:30:46.142Z,70.12
2022-08-25T14:31:44.210Z,69.09
2022-08-25T14:32:44.176Z,68.99
2022-08-25T14:33:44.158Z,68.59
2022-08-25T14:34:44.188Z,68.49
2022-08-25T14:35:44.142Z,69.29
2022-08-25T14:36:44.841Z,69.99
2022-08-25T14:37:44.159Z,69.73
2022-08-25T14:38:44.268Z,69.89
2022-08-25T14:39:44.194Z,70.19
2022-08-25T14:40:44.171Z,68.96
2022-08-25T14:41:46.361Z,69.16
2022-08-25T14:42:44.071Z,67.83
2022-08-25T14:43:44.067Z,66.20
2022-08-25T14:44:44.037Z,66.90
2022-08-25T14:45:44.071Z,66.77
2022-08-25T14:46:43.997Z,64.84
2022-08-25T14:47:44.017Z,63.95
2022-08-25T14:48:44.005Z,64.18
2022-08-25T14:49:43.987Z,64.97
2022-08-25T14:50:43.975Z,64.18
2022-08-25T14:51:43.934Z,63.18
2022-08-25T14:52:43.918Z,63.91
2022-08-25T14:53:43.923Z,64.31
2022-08-25T14:54:43.913Z,64.71
2022-08-25T14:55:43.914Z,65.11
2022-08-25T14:56:43.931Z,65.04
2022-08-25T14:57:43.888Z,65.14
2022-08-25T14:58:47.311Z,65.23
2022-08-25T14:59:43.845Z,65.44
2022-08-25T15:00:43.872Z,66.50
2022-08-25T15:01:43.873Z,65.61
2022-08-25T15:02:43.859Z,65.57
2022-08-25T15:03:43.901Z,64.84
2022-08-25T15:04:49.181Z,64.94
2022-08-25T15:05:43.802Z,64.42
2022-08-25T15:06:43.846Z,64.01
2022-08-25T15:07:43.794Z,64.12
2022-08-25T15:08:43.809Z,64.01
2022-08-25T15:09:43.781Z,63.89
2022-08-25T15:10:43.753Z,62.99
2022-08-25T15:11:43.704Z,62.10
2022-08-25T15:12:47.694Z,62.29
2022-08-25T15:13:47.709Z,62.19
2022-08-25T15:14:43.736Z,61.23
2022-08-25T15:15:52.728Z,61.03
2022-08-25T15:16:43.723Z,61.23
2022-08-25T15:17:49.473Z,61.06
2022-08-25T15:18:46.463Z,61.36
2022-08-25T15:19:43.716Z,62.15
2022-08-25T15:20:43.808Z,61.83
2022-08-25T15:21:44.236Z,61.72
2022-08-25T15:22:45.468Z,62.69
2022-08-25T15:23:44.590Z,62.49
2022-08-25T15:24:45.756Z,60.90
2022-08-25T15:25:43.573Z,60.27
2022-08-25T15:26:43.641Z,61.77
2022-08-25T15:27:43.582Z,59.08
2022-08-25T15:28:44.250Z,58.98
2022-08-25T15:29:43.528Z,58.78
2022-08-25T15:30:45.150Z,57.49
2022-08-25T15:31:43.648Z,57.69
2022-08-25T15:32:43.531Z,57.92
2022-08-25T15:33:43.542Z,58.39
2022-08-25T15:34:42.503Z,57.99
2022-08-25T15:35:43.567Z,58.09
2022-08-25T15:36:43.453Z,58.51
2022-08-25T15:37:44.475Z,58.61
2022-08-25T15:38:43.656Z,58.58
2022-08-25T15:39:43.448Z,59.68
2022-08-25T15:40:43.445Z,59.15
2022-08-25T15:41:44.036Z,59.65
2022-08-25T15:42:45.959Z,59.65
2022-08-25T15:43:43.374Z,59.12
2022-08-25T15:44:43.465Z,57.53
2022-08-25T15:45:43.431Z,57.93
2022-08-25T15:46:46.926Z,59.00
2022-08-25T15:47:43.411Z,56.81
2022-08-25T15:48:43.399Z,58.20
2022-08-25T15:49:43.284Z,55.62
2022-08-25T15:50:45.233Z,55.22
2022-08-25T15:51:45.700Z,54.33
2022-08-25T15:53:41.514Z,53.44
2022-08-25T15:54:42.517Z,53.86
2022-08-25T15:55:42.531Z,53.86
2022-08-25T15:56:42.514Z,54.53
2022-08-25T15:57:42.467Z,54.13
2022-08-25T15:58:45.976Z,52.72
2022-08-25T15:59:43.176Z,52.91
2022-08-25T16:00:43.072Z,53.01
2022-08-25T16:01:42.534Z,51.32
2022-08-25T16:02:42.454Z,52.00
2022-08-25T16:03:42.392Z,54.17
2022-08-25T16:04:42.354Z,54.08
2022-08-25T16:05:48.095Z,50.88
2022-08-25T16:06:42.339Z,51.28
2022-08-25T16:07:42.349Z,51.87
2022-08-25T16:08:42.604Z,49.91
2022-08-25T16:09:42.963Z,50.70
2022-08-25T16:10:42.330Z,50.81
2022-08-25T16:11:42.320Z,51.57
2022-08-25T16:12:42.595Z,50.18
2022-08-25T16:13:42.266Z,49.79
2022-08-25T16:14:42.318Z,49.32
2022-08-25T16:15:42.218Z,49.61
2022-08-25T16:16:42.358Z,49.63
2022-08-25T16:17:43.664Z,49.34
2022-08-25T16:18:42.180Z,49.32
2022-08-25T16:19:42.205Z,49.32
2022-08-25T16:20:42.233Z,50.40
2022-08-25T16:21:47.166Z,49.71
2022-08-25T16:22:42.168Z,49.88
2022-08-25T16:23:42.139Z,50.58
2022-08-25T16:24:42.187Z,49.49
2022-08-25T16:25:42.145Z,51.77
2022-08-25T16:26:48.054Z,51.84
2022-08-25T16:27:42.146Z,51.94
2022-08-25T16:28:43.916Z,51.32
2022-08-25T16:29:42.097Z,50.53
2022-08-25T16:30:42.066Z,49.24
2022-08-25T16:31:42.183Z,49.34
2022-08-25T16:32:42.056Z,48.85
2022-08-25T16:34:41.989Z,50.41
2022-08-25T16:35:42.067Z,49.02
2022-08-25T16:36:42.004Z,49.62
2022-08-25T16:37:42.748Z,48.11
2022-08-25T16:38:41.998Z,49.19
2022-08-25T16:39:42.012Z,47.71
2022-08-25T16:40:41.980Z,47.31
2022-08-25T16:41:41.953Z,45.23
2022-08-25T16:42:41.970Z,45.45
2022-08-25T16:43:41.927Z,45.45
2022-08-25T16:44:41.986Z,45.97
2022-08-25T16:45:41.874Z,45.65
2022-08-25T16:46:41.954Z,45.06
2022-08-25T16:47:42.809Z,44.96
2022-08-25T16:48:41.894Z,44.37
2022-08-25T16:49:41.881Z,43.97
2022-08-25T16:50:41.860Z,44.17
2022-08-25T16:51:41.827Z,45.65
2022-08-25T16:52:44.234Z,47.74
2022-08-25T16:53:41.787Z,43.67
2022-08-25T16:54:41.812Z,42.68
2022-08-25T16:55:41.831Z,43.10
2022-08-25T16:56:41.837Z,43.38
2022-08-25T16:57:41.772Z,42.88
2022-08-25T16:58:41.740Z,43.06
2022-08-25T16:59:41.775Z,43.16
2022-08-25T17:00:41.808Z,46.92
2022-08-25T17:01:42.015Z,48.21
2022-08-25T17:02:41.767Z,46.52
2022-08-25T17:03:43.801Z,48.53
2022-08-25T17:04:41.663Z,48.60
2022-08-25T17:05:41.663Z,48.70
2022-08-25T17:06:41.642Z,44.35
2022-08-25T17:07:41.680Z,44.17
2022-08-25T17:08:41.667Z,43.46
2022-08-25T17:09:41.644Z,42.07
2022-08-25T17:10:41.634Z,42.36
2022-08-25T17:11:42.361Z,41.97
2022-08-25T17:12:41.563Z,41.65
2022-08-25T17:13:44.399Z,41.46
2022-08-25T17:14:41.609Z,41.55
2022-08-25T17:15:41.629Z,42.35
2022-08-25T17:16:41.593Z,42.03
2022-08-25T17:17:41.560Z,41.63
2022-08-25T17:18:41.506Z,41.02
2022-08-25T17:19:45.458Z,41.20
2022-08-25T17:20:41.545Z,41.59
2022-08-25T17:21:45.147Z,42.46
2022-08-25T17:22:41.522Z,42.44
2022-08-25T17:23:41.444Z,42.42
2022-08-25T17:24:41.469Z,42.52
2022-08-25T17:25:43.164Z,41.91
2022-08-25T17:26:41.505Z,41.22
2022-08-25T17:27:41.432Z,42.30
2022-08-25T17:28:41.443Z,41.53
2022-08-25T17:29:41.474Z,42.36
2022-08-25T17:30:41.374Z,43.65
2022-08-25T17:31:41.375Z,42.64
2022-08-25T17:32:41.641Z,42.52
2022-08-25T17:33:41.387Z,41.81
2022-08-25T17:34:41.332Z,40.90
2022-08-25T17:35:41.334Z,40.51
2022-08-25T17:36:41.303Z,40.01
2022-08-25T17:37:41.373Z,40.21
2022-08-25T17:38:41.353Z,39.84
2022-08-25T17:39:41.313Z,41.12
2022-08-25T17:40:41.461Z,38.75
2022-08-25T17:41:41.252Z,37.29
2022-08-25T17:42:41.283Z,38.57
2022-08-25T17:43:41.262Z,45.08
2022-08-25T17:44:41.259Z,46.15
2022-08-25T17:45:41.212Z,47.82
2022-08-25T17:46:47.213Z,48.61
2022-08-25T17:47:41.228Z,49.43
2022-08-25T17:48:43.825Z,49.69
2022-08-25T17:49:41.176Z,49.67
2022-08-25T17:50:41.227Z,49.95
2022-08-25T17:51:41.158Z,50.21
2022-08-25T17:52:41.178Z,51.05
2022-08-25T17:53:41.199Z,51.87
2022-08-25T17:54:41.088Z,52.80
2022-08-25T17:55:42.328Z,53.81
2022-08-25T17:56:41.159Z,54.96
2022-08-25T17:57:41.079Z,55.15
2022-08-25T17:58:41.100Z,55.97
2022-08-25T17:59:41.778Z,55.87
2022-08-25T18:00:43.948Z,57.09
2022-08-25T18:01:41.203Z,58.30
2022-08-25T18:02:41.040Z,59.09
2022-08-25T18:03:41.051Z,58.23
2022-08-25T18:04:40.975Z,58.86
2022-08-25T18:05:41.011Z,60.44
2022-08-25T18:06:40.973Z,61.26
2022-08-25T18:07:41.020Z,60.96
2022-08-25T18:08:40.982Z,60.70
2022-08-25T18:09:40.962Z,62.41
2022-08-25T18:10:40.928Z,63.13
2022-08-25T18:11:40.935Z,62.15
2022-08-25T18:12:40.900Z,62.45
2022-08-25T18:13:40.911Z,62.18
2022-08-25T18:14:40.939Z,62.84
2022-08-25T18:15:42.400Z,62.74
2022-08-25T18:16:40.888Z,62.77
2022-08-25T18:17:40.909Z,61.38
2022-08-25T18:18:40.863Z,62.97
2022-08-25T18:19:40.882Z,63.46
2022-08-25T18:20:40.880Z,64.06
2022-08-25T18:21:41.660Z,64.06
2022-08-25T18:22:40.818Z,64.09
2022-08-25T18:23:40.817Z,64.29
2022-08-25T18:24:40.794Z,64.29
2022-08-25T18:25:41.927Z,64.09
2022-08-25T18:26:40.745Z,64.09
2022-08-25T18:27:40.790Z,64.69
2022-08-25T18:28:40.742Z,64.89
2022-08-25T18:29:40.685Z,65.02
2022-08-25T18:30:40.685Z,65.12
2022-08-25T18:31:40.870Z,65.42
2022-08-25T18:32:40.743Z,65.61
2022-08-25T18:33:40.710Z,65.72
2022-08-25T18:34:40.701Z,65.52
2022-08-25T18:35:40.654Z,65.12
2022-08-25T18:36:40.695Z,65.22
2022-08-25T18:37:40.639Z,64.42
2022-08-25T18:38:40.904Z,63.53
2022-08-25T18:39:40.642Z,63.53
2022-08-25T18:40:40.581Z,64.72
2022-08-25T18:41:40.609Z,64.32
2022-08-25T18:42:40.621Z,65.22
2022-08-25T18:43:40.571Z,65.12
2022-08-25T18:44:43.727Z,65.52
2022-08-25T18:45:40.558Z,65.81
2022-08-25T18:46:40.562Z,65.91
2022-08-25T18:47:40.526Z,66.11
2022-08-25T18:48:40.520Z,65.39
2022-08-25T18:49:40.505Z,65.68
2022-08-25T18:50:40.498Z,65.35
2022-08-25T18:51:40.472Z,65.16
2022-08-25T18:52:40.512Z,65.25
2022-08-25T18:53:49.720Z,65.65
2022-08-25T18:54:40.454Z,65.65
2022-08-25T18:55:40.450Z,66.38
2022-08-25T18:56:40.450Z,66.88
2022-08-25T18:57:55.086Z,67.11
2022-08-25T18:58:40.428Z,67.70
2022-08-25T18:59:55.061Z,67.80
2022-08-25T19:00:40.373Z,67.60
2022-08-25T19:01:40.428Z,67.90
2022-08-25T19:02:40.536Z,68.10
2022-08-25T19:03:40.338Z,68.33
2022-08-25T19:04:40.367Z,68.76
2022-08-25T19:05:40.338Z,68.56
2022-08-25T19:06:40.291Z,68.37
2022-08-25T19:07:40.414Z,69.20
2022-08-25T19:08:41.906Z,67.80
2022-08-25T19:09:40.309Z,69.59
2022-08-25T19:10:40.310Z,68.70
2022-08-25T19:11:40.250Z,68.40
2022-08-25T19:12:40.285Z,68.70
2022-08-25T19:13:40.253Z,69.79
2022-08-25T19:14:40.221Z,70.19
2022-08-25T19:15:40.258Z,70.59
2022-08-25T19:16:40.184Z,70.98
2022-08-25T19:17:40.203Z,70.98
2022-08-25T19:18:40.175Z,71.32
2022-08-25T19:19:40.154Z,71.62
2022-08-25T19:20:40.204Z,71.32
2022-08-25T19:21:40.155Z,70.45
2022-08-25T19:22:42.001Z,71.75
2022-08-25T19:23:40.128Z,72.05
2022-08-25T19:24:40.115Z,72.85
2022-08-25T19:25:41.715Z,73.05
2022-08-25T19:26:40.099Z,73.28
2022-08-25T19:27:40.090Z,71.89
2022-08-25T19:28:40.064Z,73.25
2022-08-25T19:29:40.036Z,73.65
2022-08-25T19:30:49.925Z,73.98
2022-08-25T19:31:40.044Z,74.28
2022-08-25T19:32:40.015Z,74.58
2022-08-25T19:33:43.941Z,74.58
2022-08-25T19:34:40.010Z,75.01
2022-08-25T19:35:39.979Z,75.11
2022-08-25T19:36:39.973Z,75.31
2022-08-25T19:37:39.957Z,75.31
2022-08-25T19:38:40.016Z,75.85
2022-08-25T19:39:39.917Z,75.95
2022-08-25T19:40:39.985Z,76.04
2022-08-25T19:41:39.920Z,76.28
2022-08-25T19:42:39.885Z,76.68
2022-08-25T19:43:39.861Z,77.22
2022-08-25T19:44:40.179Z,77.22
2022-08-25T19:45:39.857Z,77.51
2022-08-25T19:46:39.981Z,77.62
2022-08-25T19:47:39.806Z,78.05
2022-08-25T19:48:39.872Z,78.05
2022-08-25T19:49:39.804Z,77.86
2022-08-25T19:50:39.837Z,77.95
2022-08-25T19:51:39.838Z,77.95
2022-08-25T19:52:39.786Z,78.25
2022-08-25T19:53:39.795Z,78.16
2022-08-25T19:54:39.748Z,78.25
2022-08-25T19:55:39.735Z,78.36
2022-08-25T19:56:53.695Z,78.25
2022-08-25T19:57:42.929Z,78.25
2022-08-25T19:58:39.721Z,78.36
2022-08-25T19:59:43.140Z,78.36
2022-08-25T20:00:39.688Z,78.25
2022-08-25T20:01:40.372Z,78.45
2022-08-25T20:02:39.767Z,78.25
2022-08-25T20:03:39.697Z,78.16
2022-08-25T20:04:39.651Z,78.36
2022-08-25T20:05:39.656Z,78.05
2022-08-25T20:06:39.630Z,78.59
2022-08-25T20:07:39.579Z,78.89
2022-08-25T20:08:39.647Z,78.99
2022-08-25T20:09:40.952Z,78.89
2022-08-25T20:10:42.089Z,78.69
2022-08-25T20:11:39.552Z,78.59
2022-08-25T20:12:39.561Z,78.49
2022-08-25T20:13:39.512Z,78.49
2022-08-25T20:14:40.048Z,78.89
2022-08-25T20:15:39.631Z,79.19
2022-08-25T20:16:39.503Z,79.73
2022-08-25T20:17:41.717Z,80.13
2022-08-25T20:18:39.505Z,80.43
2022-08-25T20:19:39.436Z,80.43
2022-08-25T20:20:39.494Z,80.33
2022-08-25T20:21:40.093Z,80.67
2022-08-25T20:22:39.514Z,81.07
2022-08-25T20:23:39.419Z,81.47
2022-08-25T20:24:39.436Z,81.07
2022-08-25T20:25:39.387Z,81.51
2022-08-25T20:26:39.413Z,81.71
2022-08-25T20:27:39.434Z,81.91
2022-08-25T20:28:39.430Z,81.91
2022-08-25T20:29:40.157Z,82.01
2022-08-25T20:30:39.416Z,82.15
2022-08-25T20:31:39.306Z,82.55
2022-08-25T20:32:39.415Z,81.95
2022-08-25T20:33:39.304Z,82.65
2022-08-25T20:34:39.351Z,82.75
2022-08-25T20:35:39.330Z,82.99
2022-08-25T20:36:41.595Z,83.09
2022-08-25T20:37:39.298Z,83.19
2022-08-25T20:38:39.304Z,83.19
2022-08-25T20:39:39.290Z,82.89
2022-08-25T20:40:39.239Z,83.09
2022-08-25T20:41:39.222Z,83.05
2022-08-25T20:42:39.250Z,82.75
2022-08-25T20:43:39.157Z,82.55
2022-08-25T20:44:42.087Z,82.55
2022-08-25T20:45:39.258Z,82.45
2022-08-25T20:46:39.144Z,81.95
2022-08-25T20:47:39.126Z,81.65
2022-08-25T20:48:39.162Z,81.51
2022-08-25T20:49:39.131Z,81.41
2022-08-25T20:50:39.327Z,81.74
2022-08-25T20:51:39.112Z,81.65
2022-08-25T20:52:39.256Z,81.74
2022-08-25T20:53:39.061Z,81.85
2022-08-25T20:54:39.076Z,81.85
2022-08-25T20:55:42.377Z,81.95
2022-08-25T20:56:39.074Z,82.15
2022-08-25T20:57:39.054Z,81.85
2022-08-25T20:58:39.064Z,82.35
2022-08-25T20:59:39.020Z,82.39
2022-08-25T21:00:38.974Z,82.39
2022-08-25T21:01:39.819Z,82.69
2022-08-25T21:02:39.135Z,83.13
2022-08-25T21:03:38.979Z,83.23
2022-08-25T21:04:39.268Z,83.23
2022-08-25T21:05:38.997Z,83.23
2022-08-25T21:06:38.907Z,83.23
2022-08-25T21:07:38.894Z,83.23
2022-08-25T21:08:38.942Z,83.13
2022-08-25T21:09:40.074Z,83.23
2022-08-25T21:10:38.884Z,83.13
2022-08-25T21:11:38.885Z,83.03
2022-08-25T21:12:38.869Z,83.13
2022-08-25T21:13:38.832Z,83.13
2022-08-25T21:14:38.818Z,83.23
2022-08-25T21:15:38.814Z,83.53
2022-08-25T21:16:38.866Z,83.53
2022-08-25T21:17:38.825Z,83.77
2022-08-25T21:18:38.801Z,84.07
2022-08-25T21:19:38.820Z,83.87
2022-08-25T21:20:38.826Z,84.17
2022-08-25T21:21:38.738Z,84.17
2022-08-25T21:22:38.773Z,84.17
2022-08-25T21:23:39.592Z,84.37
2022-08-25T21:24:38.728Z,84.57
2022-08-25T21:25:38.729Z,84.67
2022-08-25T21:26:48.989Z,84.97
2022-08-25T21:27:38.705Z,84.97
2022-08-25T21:28:38.691Z,85.11
2022-08-25T21:29:38.703Z,85.31
2022-08-25T21:30:38.683Z,85.31
2022-08-25T21:31:38.614Z,85.22
2022-08-25T21:32:38.649Z,85.08
2022-08-25T21:33:38.602Z,84.97
2022-08-25T21:34:38.566Z,84.77
2022-08-25T21:35:38.619Z,84.57
2022-08-25T21:36:38.585Z,84.37
2022-08-25T21:37:39.354Z,84.27
2022-08-25T21:38:39.901Z,84.27
2022-08-25T21:39:38.541Z,84.47
2022-08-25T21:40:38.552Z,84.47
2022-08-25T21:41:38.589Z,84.67
2022-08-25T21:42:38.518Z,84.77
2022-08-25T21:43:38.500Z,84.88
2022-08-25T21:44:38.509Z,85.08
2022-08-25T21:45:40.410Z,85.27
2022-08-25T21:46:38.508Z,85.27
2022-08-25T21:47:38.429Z,85.08
2022-08-25T21:48:38.464Z,85.08
2022-08-25T21:49:38.438Z,85.27
2022-08-25T21:50:38.479Z,85.17
2022-08-25T21:51:40.744Z,85.27
2022-08-25T21:52:38.378Z,85.27
2022-08-25T21:53:38.379Z,85.27
2022-08-25T21:54:38.415Z,85.38
2022-08-25T21:55:38.361Z,85.27
2022-08-25T21:56:38.582Z,85.27
2022-08-25T21:57:38.331Z,85.17
2022-08-25T21:58:38.361Z,85.08
2022-08-25T21:59:38.383Z,84.77
2022-08-25T22:00:38.304Z,84.77
2022-08-25T22:01:38.321Z,84.67
2022-08-25T22:02:38.345Z,84.47
2022-08-25T22:03:38.277Z,84.57
2022-08-25T22:04:38.270Z,84.57
2022-08-25T22:05:38.310Z,84.77
2022-08-25T22:06:38.244Z,84.67
2022-08-25T22:07:40.453Z,84.77
2022-08-25T22:08:38.259Z,84.77
2022-08-25T22:09:38.193Z,84.97
2022-08-25T22:10:38.241Z,84.77
2022-08-25T22:11:38.226Z,84.88
2022-08-25T22:12:38.157Z,84.88
2022-08-25T22:13:43.244Z,85.08
2022-08-25T22:14:38.162Z,84.97
2022-08-25T22:15:38.802Z,85.22
2022-08-25T22:16:38.176Z,85.22
2022-08-25T22:17:38.092Z,85.41
2022-08-25T22:18:38.094Z,84.97
2022-08-25T22:19:38.072Z,84.97
2022-08-25T22:20:39.263Z,84.67
2022-08-25T22:21:38.043Z,84.47
2022-08-25T22:22:38.077Z,84.17
2022-08-25T22:23:39.978Z,83.77
2022-08-25T22:24:38.030Z,83.83
2022-08-25T22:25:45.931Z,83.83
2022-08-25T22:29:36.387Z,83.93
2022-08-25T22:30:37.372Z,84.03
2022-08-25T22:31:37.326Z,83.97
2022-08-25T22:32:37.326Z,84.37
2022-08-25T22:33:37.442Z,84.47
2022-08-25T22:34:40.222Z,84.47
2022-08-25T22:35:37.316Z,84.47